sensor_id;sensor_type;location;lat;lon;timestamp;P1;P2;P0
68841;PMS5003;55849;48.482;2.332;2023-12-20T05:55:22;0.00;0.00;0.00
68841;PMS5003;55849;48.482;2.332;2023-12-20T05:58:24;3.00;1.00;0.00
68841;PMS5003;55849;48.482;2.332;2023-12-20T06:01:26;0.00;0.00;0.00
68841;PMS5003;55849;48.482;2.332;2023-12-20T06:04:27;0.25;0.00;0.00
68841;PMS5003;55849;48.482;2.332;2023-12-20T06:07:29;2.25;0.00;0.00
68841;PMS5003;55849;48.482;2.332;2023-12-20T06:10:32;0.25;0.25;0.00
68841;PMS5003;55849;48.482;2.332;2023-12-20T06:13:33;0.00;0.00;0.00
68841;PMS5003;55849;48.482;2.332;2023-12-20T06:16:35;3.00;2.25;0.00
68841;PMS5003;55849;48.482;2.332;2023-12-20T06:19:37;0.50;0.50;0.00
68841;PMS5003;55849;48.482;2.332;2023-12-20T06:22:38;1.00;1.00;0.25
68841;PMS5003;55849;48.482;2.332;2023-12-20T06:25:41;0.00;0.00;0.00
68841;PMS5003;55849;48.482;2.332;2023-12-20T06:28:43;0.75;0.75;0.00
68841;PMS5003;55849;48.482;2.332;2023-12-20T06:31:45;0.00;0.00;0.00
68841;PMS5003;55849;48.482;2.332;2023-12-20T06:34:46;0.00;0.00;0.00
68841;PMS5003;55849;48.482;2.332;2023-12-20T06:37:48;0.00;0.00;0.00
68841;PMS5003;55849;48.482;2.332;2023-12-20T06:40:51;4.00;3.00;0.00
68841;PMS5003;55849;48.482;2.332;2023-12-20T06:43:52;3.00;0.75;0.00
68841;PMS5003;55849;48.482;2.332;2023-12-20T06:46:54;0.00;0.00;0.00
68841;PMS5003;55849;48.482;2.332;2023-12-20T06:49:55;0.00;0.00;0.00
68841;PMS5003;55849;48.482;2.332;2023-12-20T06:52:57;0.00;0.00;0.00
68841;PMS5003;55849;48.482;2.332;2023-12-20T06:56:00;0.25;0.25;0.00
68841;PMS5003;55849;48.482;2.332;2023-12-20T06:59:02;0.25;0.25;0.00
68841;PMS5003;55849;48.482;2.332;2023-12-20T07:02:04;0.00;0.00;0.00
68841;PMS5003;55849;48.482;2.332;2023-12-20T07:05:06;0.00;0.00;0.00
68841;PMS5003;55849;48.482;2.332;2023-12-20T07:08:08;0.00;0.00;0.00
68841;PMS5003;55849;48.482;2.332;2023-12-20T07:11:11;0.75;0.00;0.00
68841;PMS5003;55849;48.482;2.332;2023-12-20T07:14:13;0.00;0.00;0.00
68841;PMS5003;55849;48.482;2.332;2023-12-20T07:17:15;0.00;0.00;0.00
68841;PMS5003;55849;48.482;2.332;2023-12-20T07:20:16;0.00;0.00;0.00
68841;PMS5003;55849;48.482;2.332;2023-12-20T07:23:18;1.00;1.00;0.00
68841;PMS5003;55849;48.482;2.332;2023-12-20T07:26:21;3.00;0.00;0.00
68841;PMS5003;55849;48.482;2.332;2023-12-20T07:29:23;6.00;0.00;0.00
68841;PMS5003;55849;48.482;2.332;2023-12-20T07:32:25;0.25;0.25;0.00
68841;PMS5003;55849;48.482;2.332;2023-12-20T07:35:26;2.50;0.00;0.00
68841;PMS5003;55849;48.482;2.332;2023-12-20T07:38:28;1.00;0.00;0.00
68841;PMS5003;55849;48.482;2.332;2023-12-20T07:41:31;0.00;0.00;0.00
68841;PMS5003;55849;48.482;2.332;2023-12-20T07:44:32;0.50;0.25;0.00
68841;PMS5003;55849;48.482;2.332;2023-12-20T07:47:35;1.00;0.00;0.00
68841;PMS5003;55849;48.482;2.332;2023-12-20T07:50:37;0.00;0.00;0.00
68841;PMS5003;55849;48.482;2.332;2023-12-20T07:53:38;1.00;1.00;0.75
68841;PMS5003;55849;48.482;2.332;2023-12-20T07:56:41;0.00;0.00;0.00
68841;PMS5003;55849;48.482;2.332;2023-12-20T07:59:43;1.00;1.00;1.00
68841;PMS5003;55849;48.482;2.332;2023-12-20T08:02:45;2.00;2.00;1.00
68841;PMS5003;55849;48.482;2.332;2023-12-20T08:05:47;1.00;1.00;0.75
68841;PMS5003;55849;48.482;2.332;2023-12-20T08:08:48;1.50;1.50;0.75
68841;PMS5003;55849;48.482;2.332;2023-12-20T08:11:51;6.00;4.00;1.00
68841;PMS5003;55849;48.482;2.332;2023-12-20T08:14:53;1.00;1.00;1.00
68841;PMS5003;55849;48.482;2.332;2023-12-20T08:17:55;1.00;1.00;0.75
68841;PMS5003;55849;48.482;2.332;2023-12-20T08:20:56;7.00;4.50;3.00
68841;PMS5003;55849;48.482;2.332;2023-12-20T08:23:58;2.75;2.75;1.50
68841;PMS5003;55849;48.482;2.332;2023-12-20T08:27:02;6.00;3.50;2.50
68841;PMS5003;55849;48.482;2.332;2023-12-20T08:30:04;8.25;5.50;3.25
68841;PMS5003;55849;48.482;2.332;2023-12-20T08:33:06;4.75;3.00;2.00
68841;PMS5003;55849;48.482;2.332;2023-12-20T08:36:11;3.50;3.50;3.00
68841;PMS5003;55849;48.482;2.332;2023-12-20T08:39:13;3.00;3.00;1.00
68841;PMS5003;55849;48.482;2.332;2023-12-20T08:42:16;1.00;1.00;1.00
68841;PMS5003;55849;48.482;2.332;2023-12-20T08:45:17;1.00;1.00;0.25
68841;PMS5003;55849;48.482;2.332;2023-12-20T08:48:19;4.25;1.50;1.00
68841;PMS5003;55849;48.482;2.332;2023-12-20T08:51:21;2.75;1.00;1.00
68841;PMS5003;55849;48.482;2.332;2023-12-20T08:54:25;2.00;2.00;1.50
68841;PMS5003;55849;48.482;2.332;2023-12-20T08:57:28;1.50;1.50;0.25
68841;PMS5003;55849;48.482;2.332;2023-12-20T09:00:31;5.00;3.50;3.00
68841;PMS5003;55849;48.482;2.332;2023-12-20T09:03:33;4.25;4.25;3.00
68841;PMS5003;55849;48.482;2.332;2023-12-20T09:06:35;2.00;2.00;2.00
68841;PMS5003;55849;48.482;2.332;2023-12-20T09:09:36;3.25;3.00;3.00
68841;PMS5003;55849;48.482;2.332;2023-12-20T09:12:39;1.75;1.00;1.00
68841;PMS5003;55849;48.482;2.332;2023-12-20T09:15:42;3.00;3.00;1.00
68841;PMS5003;55849;48.482;2.332;2023-12-20T09:18:44;6.75;3.00;1.00
68841;PMS5003;55849;48.482;2.332;2023-12-20T09:21:45;4.00;4.00;3.00
68841;PMS5003;55849;48.482;2.332;2023-12-20T09:24:47;1.00;1.00;0.00
68841;PMS5003;55849;48.482;2.332;2023-12-20T09:27:50;3.50;3.00;2.00
68841;PMS5003;55849;48.482;2.332;2023-12-20T09:30:52;1.00;1.00;0.25
68841;PMS5003;55849;48.482;2.332;2023-12-20T09:33:53;1.00;1.00;1.00
68841;PMS5003;55849;48.482;2.332;2023-12-20T09:36:55;3.75;1.50;1.00
68841;PMS5003;55849;48.482;2.332;2023-12-20T09:39:56;1.00;1.00;0.00
68841;PMS5003;55849;48.482;2.332;2023-12-20T09:43:02;2.00;1.00;0.25
68841;PMS5003;55849;48.482;2.332;2023-12-20T09:46:05;1.00;1.00;0.00
68841;PMS5003;55849;48.482;2.332;2023-12-20T09:49:08;0.75;0.75;0.00
68841;PMS5003;55849;48.482;2.332;2023-12-20T09:52:10;23.50;10.00;6.00
68841;PMS5003;55849;48.482;2.332;2023-12-20T09:55:14;3.25;3.25;1.00
68841;PMS5003;55849;48.482;2.332;2023-12-20T09:58:18;3.25;2.00;1.50
68841;PMS5003;55849;48.482;2.332;2023-12-20T10:01:20;3.25;3.00;1.00
68841;PMS5003;55849;48.482;2.332;2023-12-20T10:04:23;2.50;2.00;0.50
68841;PMS5003;55849;48.482;2.332;2023-12-20T10:07:25;0.00;0.00;0.00
68841;PMS5003;55849;48.482;2.332;2023-12-20T10:10:27;4.50;1.50;0.25
68841;PMS5003;55849;48.482;2.332;2023-12-20T10:13:30;1.00;1.00;0.00
68841;PMS5003;55849;48.482;2.332;2023-12-20T10:16:32;0.25;0.25;0.25
68841;PMS5003;55849;48.482;2.332;2023-12-20T10:19:37;1.00;1.00;1.00
68841;PMS5003;55849;48.482;2.332;2023-12-20T10:22:38;7.00;6.00;4.00
68841;PMS5003;55849;48.482;2.332;2023-12-20T10:25:40;24.50;21.00;12.25
68841;PMS5003;55849;48.482;2.332;2023-12-20T10:28:44;13.50;11.00;6.50
68841;PMS5003;55849;48.482;2.332;2023-12-20T10:31:45;2.25;0.75;0.75
68841;PMS5003;55849;48.482;2.332;2023-12-20T10:34:47;3.00;3.00;1.00
68841;PMS5003;55849;48.482;2.332;2023-12-20T10:37:49;1.00;1.00;1.00
68841;PMS5003;55849;48.482;2.332;2023-12-20T10:40:52;1.75;0.25;0.00
68841;PMS5003;55849;48.482;2.332;2023-12-20T10:44:00;22.00;16.00;12.00
68841;PMS5003;55849;48.482;2.332;2023-12-20T10:47:03;19.75;15.25;11.50
68841;PMS5003;55849;48.482;2.332;2023-12-20T10:50:06;6.00;4.00;3.00
68841;PMS5003;55849;48.482;2.332;2023-12-20T10:53:09;8.00;7.00;6.00
68841;PMS5003;55849;48.482;2.332;2023-12-20T10:56:12;24.50;22.25;16.50
68841;PMS5003;55849;48.482;2.332;2023-12-20T10:59:20;9.00;6.00;6.00
68841;PMS5003;55849;48.482;2.332;2023-12-20T11:02:23;6.00;6.00;4.00
68841;PMS5003;55849;48.482;2.332;2023-12-20T11:05:28;2.50;2.50;1.00
68841;PMS5003;55849;48.482;2.332;2023-12-20T11:08:36;7.75;6.75;5.50
68841;PMS5003;55849;48.482;2.332;2023-12-20T11:15:11;4.00;3.50;1.00
68841;PMS5003;55849;48.482;2.332;2023-12-20T11:18:14;6.75;0.75;0.00
68841;PMS5003;55849;48.482;2.332;2023-12-20T11:21:16;3.75;3.75;3.00
68841;PMS5003;55849;48.482;2.332;2023-12-20T11:24:21;1.00;1.00;0.25
68841;PMS5003;55849;48.482;2.332;2023-12-20T11:27:23;4.00;4.00;3.00
68841;PMS5003;55849;48.482;2.332;2023-12-20T11:30:26;5.75;3.25;1.00
68841;PMS5003;55849;48.482;2.332;2023-12-20T11:33:42;4.00;4.00;3.50
68841;PMS5003;55849;48.482;2.332;2023-12-20T11:36:44;1.50;1.50;1.00
68841;PMS5003;55849;48.482;2.332;2023-12-20T11:39:46;7.00;4.00;3.00
68841;PMS5003;55849;48.482;2.332;2023-12-20T11:42:55;7.50;7.50;6.00
68841;PMS5003;55849;48.482;2.332;2023-12-20T11:46:02;3.25;2.50;1.00
68841;PMS5003;55849;48.482;2.332;2023-12-20T11:49:05;9.00;6.25;4.00
68841;PMS5003;55849;48.482;2.332;2023-12-20T11:52:07;3.50;3.50;3.50
68841;PMS5003;55849;48.482;2.332;2023-12-20T11:55:08;7.00;4.50;3.00
68841;PMS5003;55849;48.482;2.332;2023-12-20T11:58:10;3.50;3.50;2.00
68841;PMS5003;55849;48.482;2.332;2023-12-20T12:01:14;0.00;0.00;0.00
68841;PMS5003;55849;48.482;2.332;2023-12-20T12:04:16;4.00;4.00;3.00
68841;PMS5003;55849;48.482;2.332;2023-12-20T12:07:18;4.50;3.50;1.00
68841;PMS5003;55849;48.482;2.332;2023-12-20T12:10:20;3.50;3.00;0.25
68841;PMS5003;55849;48.482;2.332;2023-12-20T12:13:21;4.50;1.50;1.00
68841;PMS5003;55849;48.482;2.332;2023-12-20T12:16:24;2.50;0.00;0.00
68841;PMS5003;55849;48.482;2.332;2023-12-20T12:19:26;3.25;3.25;2.00
68841;PMS5003;55849;48.482;2.332;2023-12-20T12:22:28;4.75;3.00;1.00
68841;PMS5003;55849;48.482;2.332;2023-12-20T12:25:31;4.75;3.00;3.00
68841;PMS5003;55849;48.482;2.332;2023-12-20T12:28:34;3.50;3.00;1.00
68841;PMS5003;55849;48.482;2.332;2023-12-20T12:31:37;1.75;1.00;1.00
68841;PMS5003;55849;48.482;2.332;2023-12-20T12:34:39;11.75;7.00;4.50
68841;PMS5003;55849;48.482;2.332;2023-12-20T12:37:41;1.00;1.00;0.00
68841;PMS5003;55849;48.482;2.332;2023-12-20T12:40:43;0.00;0.00;0.00
68841;PMS5003;55849;48.482;2.332;2023-12-20T12:43:45;1.00;1.00;0.75
68841;PMS5003;55849;48.482;2.332;2023-12-20T12:46:48;3.00;0.00;0.00
68841;PMS5003;55849;48.482;2.332;2023-12-20T12:49:51;0.25;0.25;0.00
68841;PMS5003;55849;48.482;2.332;2023-12-20T12:52:53;1.00;1.00;0.00
68841;PMS5003;55849;48.482;2.332;2023-12-20T12:55:54;3.75;2.50;1.00
68841;PMS5003;55849;48.482;2.332;2023-12-20T12:58:56;3.00;1.00;0.75
68841;PMS5003;55849;48.482;2.332;2023-12-20T13:01:59;2.50;2.50;1.00
68841;PMS5003;55849;48.482;2.332;2023-12-20T13:05:01;12.25;6.00;1.00
68841;PMS5003;55849;48.482;2.332;2023-12-20T13:08:03;26.00;24.00;12.25
68841;PMS5003;55849;48.482;2.332;2023-12-20T13:11:05;3.25;1.00;1.00
68841;PMS5003;55849;48.482;2.332;2023-12-20T13:14:06;5.00;5.00;3.00
68841;PMS5003;55849;48.482;2.332;2023-12-20T13:17:12;6.25;4.00;3.25
68841;PMS5003;55849;48.482;2.332;2023-12-20T13:20:13;7.00;7.00;5.00
68841;PMS5003;55849;48.482;2.332;2023-12-20T13:23:15;3.00;2.50;1.00
68841;PMS5003;55849;48.482;2.332;2023-12-20T13:26:18;1.00;0.50;0.00
68841;PMS5003;55849;48.482;2.332;2023-12-20T13:29:19;6.00;6.00;3.50
68841;PMS5003;55849;48.482;2.332;2023-12-20T13:32:22;8.00;6.00;3.50
68841;PMS5003;55849;48.482;2.332;2023-12-20T13:35:24;12.00;9.00;6.00
68841;PMS5003;55849;48.482;2.332;2023-12-20T13:38:25;4.00;4.00;1.00
68841;PMS5003;55849;48.482;2.332;2023-12-20T13:41:27;6.25;3.00;3.00
68841;PMS5003;55849;48.482;2.332;2023-12-20T13:44:28;0.00;0.00;0.00
68841;PMS5003;55849;48.482;2.332;2023-12-20T13:47:32;3.75;3.75;2.50
68841;PMS5003;55849;48.482;2.332;2023-12-20T13:50:34;1.50;1.50;0.00
68841;PMS5003;55849;48.482;2.332;2023-12-20T13:53:35;1.50;1.50;1.00
68841;PMS5003;55849;48.482;2.332;2023-12-20T13:56:38;2.00;2.00;1.00
68841;PMS5003;55849;48.482;2.332;2023-12-20T13:59:40;3.00;3.00;3.00
68841;PMS5003;55849;48.482;2.332;2023-12-20T14:02:43;3.50;2.50;1.00
68841;PMS5003;55849;48.482;2.332;2023-12-20T14:05:44;1.50;1.00;1.00
68841;PMS5003;55849;48.482;2.332;2023-12-20T14:08:46;0.50;0.25;0.00
68841;PMS5003;55849;48.482;2.332;2023-12-20T14:11:48;2.25;0.50;0.50
68841;PMS5003;55849;48.482;2.332;2023-12-20T14:14:49;1.50;1.50;0.25
68841;PMS5003;55849;48.482;2.332;2023-12-20T14:17:52;1.00;1.00;0.75
68841;PMS5003;55849;48.482;2.332;2023-12-20T14:20:54;1.50;1.00;0.00
68841;PMS5003;55849;48.482;2.332;2023-12-20T14:23:56;1.00;0.75;0.00
68841;PMS5003;55849;48.482;2.332;2023-12-20T14:26:58;6.00;6.00;3.00
68841;PMS5003;55849;48.482;2.332;2023-12-20T14:30:00;12.00;9.00;5.50
68841;PMS5003;55849;48.482;2.332;2023-12-20T14:33:03;12.00;3.50;1.50
68841;PMS5003;55849;48.482;2.332;2023-12-20T14:36:06;3.25;3.25;3.00
68841;PMS5003;55849;48.482;2.332;2023-12-20T14:39:08;4.00;2.50;1.00
68841;PMS5003;55849;48.482;2.332;2023-12-20T14:42:13;3.00;2.50;0.00
68841;PMS5003;55849;48.482;2.332;2023-12-20T14:45:14;13.50;7.25;3.75
68841;PMS5003;55849;48.482;2.332;2023-12-20T14:48:18;1.00;1.00;0.00
68841;PMS5003;55849;48.482;2.332;2023-12-20T14:51:19;3.25;3.00;1.00
68841;PMS5003;55849;48.482;2.332;2023-12-20T14:54:21;1.00;1.00;1.00
68841;PMS5003;55849;48.482;2.332;2023-12-20T14:57:22;3.00;3.00;1.00
68841;PMS5003;55849;48.482;2.332;2023-12-20T15:00:24;9.00;6.25;4.00
68841;PMS5003;55849;48.482;2.332;2023-12-20T15:03:27;9.00;6.00;5.00
68841;PMS5003;55849;48.482;2.332;2023-12-20T15:06:29;7.75;7.75;5.50
68841;PMS5003;55849;48.482;2.332;2023-12-20T15:09:31;7.00;7.00;4.00
68841;PMS5003;55849;48.482;2.332;2023-12-20T15:12:33;9.50;6.50;6.50
68841;PMS5003;55849;48.482;2.332;2023-12-20T15:15:35;4.25;3.00;0.00
68841;PMS5003;55849;48.482;2.332;2023-12-20T15:18:39;11.50;10.50;7.00
68841;PMS5003;55849;48.482;2.332;2023-12-20T15:21:40;3.25;3.00;3.00
68841;PMS5003;55849;48.482;2.332;2023-12-20T15:24:42;5.50;3.00;2.50
68841;PMS5003;55849;48.482;2.332;2023-12-20T15:27:46;12.00;12.00;10.50
68841;PMS5003;55849;48.482;2.332;2023-12-20T15:30:52;4.00;3.00;2.50
68841;PMS5003;55849;48.482;2.332;2023-12-20T15:33:55;10.50;6.75;5.50
68841;PMS5003;55849;48.482;2.332;2023-12-20T15:36:56;6.25;6.25;6.00
68841;PMS5003;55849;48.482;2.332;2023-12-20T15:39:58;9.50;7.00;4.00
68841;PMS5003;55849;48.482;2.332;2023-12-20T15:43:00;12.25;9.50;7.00
68841;PMS5003;55849;48.482;2.332;2023-12-20T15:46:02;5.50;5.50;3.75
68841;PMS5003;55849;48.482;2.332;2023-12-20T15:49:05;6.00;6.00;4.00
68841;PMS5003;55849;48.482;2.332;2023-12-20T15:52:07;20.50;16.50;13.00
68841;PMS5003;55849;48.482;2.332;2023-12-20T15:55:08;6.25;5.50;3.25
68841;PMS5003;55849;48.482;2.332;2023-12-20T15:58:10;3.00;2.50;1.00
68841;PMS5003;55849;48.482;2.332;2023-12-20T16:01:11;7.00;4.00;3.00
68841;PMS5003;55849;48.482;2.332;2023-12-20T16:04:14;17.25;12.75;8.50
68841;PMS5003;55849;48.482;2.332;2023-12-20T16:07:16;19.25;15.50;11.50
68841;PMS5003;55849;48.482;2.332;2023-12-20T16:10:17;22.00;20.50;15.75
68841;PMS5003;55849;48.482;2.332;2023-12-20T16:13:19;4.00;2.00;1.00
68841;PMS5003;55849;48.482;2.332;2023-12-20T16:16:21;9.50;9.50;4.00
68841;PMS5003;55849;48.482;2.332;2023-12-20T16:19:24;9.75;9.75;6.75
68841;PMS5003;55849;48.482;2.332;2023-12-20T16:22:25;3.50;1.00;0.75
68841;PMS5003;55849;48.482;2.332;2023-12-20T16:25:27;4.00;3.00;2.50
68841;PMS5003;55849;48.482;2.332;2023-12-20T16:28:28;3.75;3.75;2.00
68841;PMS5003;55849;48.482;2.332;2023-12-20T16:31:30;7.75;4.00;3.00
68841;PMS5003;55849;48.482;2.332;2023-12-20T16:34:33;6.75;3.75;2.50
68841;PMS5003;55849;48.482;2.332;2023-12-20T16:37:35;6.00;3.00;1.00
68841;PMS5003;55849;48.482;2.332;2023-12-20T16:40:37;12.75;10.00;7.00
68841;PMS5003;55849;48.482;2.332;2023-12-20T16:43:40;4.00;4.00;3.00
68841;PMS5003;55849;48.482;2.332;2023-12-20T16:46:41;9.50;6.25;4.00
68841;PMS5003;55849;48.482;2.332;2023-12-20T16:49:44;5.50;2.50;1.00
68841;PMS5003;55849;48.482;2.332;2023-12-20T16:52:46;7.50;5.00;3.25
68841;PMS5003;55849;48.482;2.332;2023-12-20T16:55:51;3.00;3.00;3.00
68841;PMS5003;55849;48.482;2.332;2023-12-20T16:58:52;3.75;3.75;3.00
68841;PMS5003;55849;48.482;2.332;2023-12-20T17:01:54;6.50;6.50;6.00
68841;PMS5003;55849;48.482;2.332;2023-12-20T17:04:57;7.50;7.50;6.00
68841;PMS5003;55849;48.482;2.332;2023-12-20T17:07:58;9.00;5.00;4.00
68841;PMS5003;55849;48.482;2.332;2023-12-20T17:11:00;8.00;8.00;5.00
68841;PMS5003;55849;48.482;2.332;2023-12-20T17:14:02;11.00;11.00;9.00
68841;PMS5003;55849;48.482;2.332;2023-12-20T17:17:03;13.00;11.50;9.75
68841;PMS5003;55849;48.482;2.332;2023-12-20T17:20:07;27.75;21.00;15.50
68841;PMS5003;55849;48.482;2.332;2023-12-20T17:23:09;14.50;10.00;8.50
68841;PMS5003;55849;48.482;2.332;2023-12-20T17:26:11;9.00;7.00;6.00
68841;PMS5003;55849;48.482;2.332;2023-12-20T17:29:13;17.00;11.00;7.00
68841;PMS5003;55849;48.482;2.332;2023-12-20T17:32:15;19.50;11.50;10.00
68841;PMS5003;55849;48.482;2.332;2023-12-20T17:35:18;12.75;12.75;7.00
68841;PMS5003;55849;48.482;2.332;2023-12-20T17:38:20;17.50;17.50;13.50
68841;PMS5003;55849;48.482;2.332;2023-12-20T17:41:21;21.25;14.00;12.00
68841;PMS5003;55849;48.482;2.332;2023-12-20T17:44:23;16.75;13.00;9.25
68841;PMS5003;55849;48.482;2.332;2023-12-20T17:47:24;14.00;9.25;6.00
68841;PMS5003;55849;48.482;2.332;2023-12-20T17:50:27;13.00;6.50;5.25
68841;PMS5003;55849;48.482;2.332;2023-12-20T17:53:29;13.00;9.25;4.50
68841;PMS5003;55849;48.482;2.332;2023-12-20T17:56:30;6.25;5.50;3.00
68841;PMS5003;55849;48.482;2.332;2023-12-20T17:59:32;7.00;4.00;4.00
68841;PMS5003;55849;48.482;2.332;2023-12-20T18:02:34;14.50;12.25;7.00
68841;PMS5003;55849;48.482;2.332;2023-12-20T18:05:37;9.50;9.00;6.00
68841;PMS5003;55849;48.482;2.332;2023-12-20T18:08:38;8.00;8.00;6.00
68841;PMS5003;55849;48.482;2.332;2023-12-20T18:11:40;8.25;7.00;5.25
68841;PMS5003;55849;48.482;2.332;2023-12-20T18:14:42;10.00;10.00;7.00
68841;PMS5003;55849;48.482;2.332;2023-12-20T18:17:46;6.25;6.00;4.50
68841;PMS5003;55849;48.482;2.332;2023-12-20T18:20:49;10.50;10.50;7.00
68841;PMS5003;55849;48.482;2.332;2023-12-20T18:23:51;11.75;11.75;6.75
68841;PMS5003;55849;48.482;2.332;2023-12-20T18:26:52;6.50;6.50;4.00
68841;PMS5003;55849;48.482;2.332;2023-12-20T18:29:54;9.00;6.50;4.00
68841;PMS5003;55849;48.482;2.332;2023-12-20T18:32:55;6.25;6.25;4.50
68841;PMS5003;55849;48.482;2.332;2023-12-20T18:35:58;9.50;5.50;3.50
68841;PMS5003;55849;48.482;2.332;2023-12-20T18:39:00;15.75;13.00;9.75
68841;PMS5003;55849;48.482;2.332;2023-12-20T18:42:01;18.00;15.25;9.75
68841;PMS5003;55849;48.482;2.332;2023-12-20T18:45:05;23.00;19.25;14.75
68841;PMS5003;55849;48.482;2.332;2023-12-20T18:48:08;9.00;9.00;6.50
68841;PMS5003;55849;48.482;2.332;2023-12-20T18:51:10;13.00;12.50;10.00
68841;PMS5003;55849;48.482;2.332;2023-12-20T18:54:12;23.00;19.00;12.00
68841;PMS5003;55849;48.482;2.332;2023-12-20T18:57:14;7.00;7.00;6.00
68841;PMS5003;55849;48.482;2.332;2023-12-20T19:00:15;7.75;6.25;3.50
68841;PMS5003;55849;48.482;2.332;2023-12-20T19:03:17;9.75;9.75;6.25
68841;PMS5003;55849;48.482;2.332;2023-12-20T19:06:20;11.00;9.00;7.00
68841;PMS5003;55849;48.482;2.332;2023-12-20T19:09:22;10.00;8.00;4.00
68841;PMS5003;55849;48.482;2.332;2023-12-20T19:12:24;10.00;8.00;4.00
68841;PMS5003;55849;48.482;2.332;2023-12-20T19:15:26;9.50;6.00;4.00
68841;PMS5003;55849;48.482;2.332;2023-12-20T19:18:28;9.00;6.00;5.50
68841;PMS5003;55849;48.482;2.332;2023-12-20T19:21:31;23.50;21.50;15.00
68841;PMS5003;55849;48.482;2.332;2023-12-20T19:24:33;27.00;21.00;16.00
68841;PMS5003;55849;48.482;2.332;2023-12-20T19:27:34;9.50;9.25;8.00
68841;PMS5003;55849;48.482;2.332;2023-12-20T19:30:36;19.00;18.00;12.00
68841;PMS5003;55849;48.482;2.332;2023-12-20T19:33:38;5.25;5.25;5.00
68841;PMS5003;55849;48.482;2.332;2023-12-20T19:36:41;7.25;6.25;3.25
68841;PMS5003;55849;48.482;2.332;2023-12-20T19:39:43;27.00;24.00;14.25
68841;PMS5003;55849;48.482;2.332;2023-12-20T19:42:45;27.00;20.50;11.00
68841;PMS5003;55849;48.482;2.332;2023-12-20T19:45:46;37.00;35.00;25.50
68841;PMS5003;55849;48.482;2.332;2023-12-20T19:48:48;26.25;20.00;15.00
68841;PMS5003;55849;48.482;2.332;2023-12-20T19:51:51;10.50;8.50;6.00
68841;PMS5003;55849;48.482;2.332;2023-12-20T19:54:53;12.50;12.50;9.50
68841;PMS5003;55849;48.482;2.332;2023-12-20T19:57:55;27.50;21.25;15.25
68841;PMS5003;55849;48.482;2.332;2023-12-20T20:00:56;12.00;10.00;7.00
68841;PMS5003;55849;48.482;2.332;2023-12-20T20:03:58;14.25;9.00;7.00
68841;PMS5003;55849;48.482;2.332;2023-12-20T20:07:01;7.50;7.50;6.25
68841;PMS5003;55849;48.482;2.332;2023-12-20T20:10:03;15.75;13.50;10.00
68841;PMS5003;55849;48.482;2.332;2023-12-20T20:13:05;19.00;18.25;12.75
68841;PMS5003;55849;48.482;2.332;2023-12-20T20:16:06;10.75;9.50;8.50
68841;PMS5003;55849;48.482;2.332;2023-12-20T20:19:08;4.00;4.00;3.00
68841;PMS5003;55849;48.482;2.332;2023-12-20T20:22:11;14.00;12.50;9.00
68841;PMS5003;55849;48.482;2.332;2023-12-20T20:25:15;8.50;8.50;6.00
68841;PMS5003;55849;48.482;2.332;2023-12-20T20:28:16;8.50;8.50;7.25
68841;PMS5003;55849;48.482;2.332;2023-12-20T20:31:18;12.00;12.00;7.00
68841;PMS5003;55849;48.482;2.332;2023-12-20T20:34:19;10.00;8.50;6.00
68841;PMS5003;55849;48.482;2.332;2023-12-20T20:37:23;10.75;7.50;6.00
68841;PMS5003;55849;48.482;2.332;2023-12-20T20:40:24;7.50;7.50;5.50
68841;PMS5003;55849;48.482;2.332;2023-12-20T20:43:26;9.50;9.50;6.75
68841;PMS5003;55849;48.482;2.332;2023-12-20T20:46:27;9.50;9.50;7.00
68841;PMS5003;55849;48.482;2.332;2023-12-20T20:49:29;6.25;6.25;4.00
68841;PMS5003;55849;48.482;2.332;2023-12-20T20:52:32;7.00;7.00;6.00
68841;PMS5003;55849;48.482;2.332;2023-12-20T20:55:34;3.50;3.00;3.00
68841;PMS5003;55849;48.482;2.332;2023-12-20T20:58:35;8.25;6.50;4.00
68841;PMS5003;55849;48.482;2.332;2023-12-20T21:01:37;6.00;6.00;3.00
68841;PMS5003;55849;48.482;2.332;2023-12-20T21:04:38;4.00;4.00;1.75
68841;PMS5003;55849;48.482;2.332;2023-12-20T21:07:41;3.25;2.25;1.50
68841;PMS5003;55849;48.482;2.332;2023-12-20T21:10:44;9.25;6.25;4.00
68841;PMS5003;55849;48.482;2.332;2023-12-20T21:13:46;6.00;6.00;3.00
68841;PMS5003;55849;48.482;2.332;2023-12-20T21:16:48;4.00;4.00;4.00
68841;PMS5003;55849;48.482;2.332;2023-12-20T21:19:49;7.50;5.50;3.00
68841;PMS5003;55849;48.482;2.332;2023-12-20T21:22:52;5.00;5.00;3.00
68841;PMS5003;55849;48.482;2.332;2023-12-20T21:25:54;6.75;6.75;4.00
68841;PMS5003;55849;48.482;2.332;2023-12-20T21:28:56;7.00;4.50;3.25
68841;PMS5003;55849;48.482;2.332;2023-12-20T21:31:58;8.50;6.50;3.50
68841;PMS5003;55849;48.482;2.332;2023-12-20T21:34:59;5.25;5.25;4.00
68841;PMS5003;55849;48.482;2.332;2023-12-20T21:38:02;13.50;9.25;7.00
68841;PMS5003;55849;48.482;2.332;2023-12-20T21:41:04;14.00;5.25;5.00
68841;PMS5003;55849;48.482;2.332;2023-12-20T21:44:07;9.75;9.75;7.00
68841;PMS5003;55849;48.482;2.332;2023-12-20T21:47:08;8.00;7.50;4.00
68841;PMS5003;55849;48.482;2.332;2023-12-20T21:50:10;9.00;6.50;3.75
68841;PMS5003;55849;48.482;2.332;2023-12-20T21:53:13;4.00;4.00;3.00
68841;PMS5003;55849;48.482;2.332;2023-12-20T21:56:16;11.50;8.50;4.50
68841;PMS5003;55849;48.482;2.332;2023-12-20T21:59:17;12.00;7.00;6.00
68841;PMS5003;55849;48.482;2.332;2023-12-20T22:02:21;12.25;10.00;6.00
68841;PMS5003;55849;48.482;2.332;2023-12-20T22:05:22;9.00;9.00;4.00
68841;PMS5003;55849;48.482;2.332;2023-12-20T22:08:26;4.50;3.50;3.00
68841;PMS5003;55849;48.482;2.332;2023-12-20T22:11:28;3.25;3.25;1.50
68841;PMS5003;55849;48.482;2.332;2023-12-20T22:14:29;7.00;7.00;6.00
68841;PMS5003;55849;48.482;2.332;2023-12-20T22:17:32;6.00;4.00;2.50
68841;PMS5003;55849;48.482;2.332;2023-12-20T22:20:33;11.00;9.00;6.50
68841;PMS5003;55849;48.482;2.332;2023-12-20T22:23:40;8.50;4.50;3.00
68841;PMS5003;55849;48.482;2.332;2023-12-20T22:26:42;4.50;4.50;3.50
68841;PMS5003;55849;48.482;2.332;2023-12-20T22:29:44;6.75;6.75;3.25
68841;PMS5003;55849;48.482;2.332;2023-12-20T22:32:46;2.00;1.50;0.50
68841;PMS5003;55849;48.482;2.332;2023-12-20T22:35:48;6.25;6.00;3.00
68841;PMS5003;55849;48.482;2.332;2023-12-20T22:38:50;3.50;3.50;1.50
68841;PMS5003;55849;48.482;2.332;2023-12-20T22:41:53;5.50;4.00;3.75
68841;PMS5003;55849;48.482;2.332;2023-12-20T22:44:54;3.00;3.00;1.00
68841;PMS5003;55849;48.482;2.332;2023-12-20T22:47:56;1.00;1.00;0.75
68841;PMS5003;55849;48.482;2.332;2023-12-20T22:50:57;3.25;3.25;2.00
68841;PMS5003;55849;48.482;2.332;2023-12-20T22:54:01;1.00;1.00;0.00
